createdAt,value
2018-09-28T00:02:12.020Z,16.07
2018-09-28T00:04:51.202Z,15.80
2018-09-28T00:07:28.835Z,16.20
2018-09-28T00:10:05.798Z,14.40
2018-09-28T00:12:42.850Z,14.77
2018-09-28T00:15:20.017Z,13.47
2018-09-28T00:17:58.237Z,10.30
2018-09-28T00:20:35.047Z,11.07
2018-09-28T00:23:12.176Z,9.43
2018-09-28T00:25:49.775Z,8.37
2018-09-28T00:28:28.306Z,7.65
2018-09-28T00:30:57.969Z,7.50
2018-09-28T00:33:27.534Z,6.53
2018-09-28T00:35:57.218Z,5.83
2018-09-28T00:38:26.783Z,6.10
2018-09-28T00:40:56.469Z,5.80
2018-09-28T00:43:26.449Z,6.13
2018-09-28T00:45:56.234Z,4.87
2018-09-28T00:48:26.365Z,4.60
2018-09-28T00:50:56.455Z,4.90
2018-09-28T00:53:26.426Z,4.07
2018-09-28T00:55:56.327Z,4.10
2018-09-28T00:58:26.206Z,3.70
2018-09-28T01:00:55.902Z,4.00
2018-09-28T01:03:25.828Z,3.70
2018-09-28T01:05:55.521Z,3.27
2018-09-28T01:08:25.556Z,2.80
2018-09-28T01:10:55.315Z,3.27
2018-09-28T01:13:25.180Z,2.73
2018-09-28T01:15:55.057Z,2.80
2018-09-28T01:18:25.001Z,2.30
2018-09-28T01:20:54.674Z,2.50
2018-09-28T01:23:24.318Z,2.30
2018-09-28T01:25:54.195Z,1.70
2018-09-28T01:28:23.969Z,2.27
2018-09-28T01:30:53.869Z,2.00
2018-09-28T01:33:23.699Z,1.77
2018-09-28T01:35:53.362Z,1.85
2018-09-28T01:38:23.295Z,1.72
2018-09-28T01:40:52.918Z,1.63
2018-09-28T01:43:22.674Z,1.70
2018-09-28T01:45:52.255Z,2.47
2018-09-28T01:48:21.828Z,1.83
2018-09-28T01:50:51.431Z,1.57
2018-09-28T01:53:22.114Z,2.05
2018-09-28T01:55:52.417Z,2.10
2018-09-28T01:58:22.083Z,1.90
2018-09-28T02:00:51.789Z,2.10
2018-09-28T02:03:21.493Z,2.30
2018-09-28T02:05:51.303Z,2.00
2018-09-28T02:08:20.944Z,2.02
2018-09-28T02:10:50.676Z,2.50
2018-09-28T02:13:20.251Z,2.30
2018-09-28T02:15:49.844Z,1.87
2018-09-28T02:18:19.589Z,2.70
2018-09-28T02:20:49.179Z,2.60
2018-09-28T02:23:19.533Z,2.67
2018-09-28T02:25:49.262Z,2.53
2018-09-28T02:28:18.869Z,2.10
2018-09-28T02:30:48.585Z,2.20
2018-09-28T02:33:18.224Z,2.60
2018-09-28T02:35:54.528Z,2.00
2018-09-28T02:38:24.110Z,2.53
2018-09-28T02:40:54.297Z,1.90
2018-09-28T02:43:23.922Z,1.93
2018-09-28T02:45:53.507Z,1.93
2018-09-28T02:48:23.137Z,1.67
2018-09-28T02:50:52.871Z,1.80
2018-09-28T02:53:22.483Z,2.07
2018-09-28T02:55:52.097Z,2.07
2018-09-28T02:58:23.247Z,2.10
2018-09-28T03:00:52.946Z,1.90
2018-09-28T03:03:22.550Z,1.70
2018-09-28T03:05:52.140Z,2.43
2018-09-28T03:08:21.909Z,2.45
2018-09-28T03:10:51.647Z,1.80
2018-09-28T03:13:21.399Z,2.45
2018-09-28T03:15:51.389Z,1.97
2018-09-28T03:18:21.066Z,2.20
2018-09-28T03:20:50.990Z,2.80
2018-09-28T03:23:20.748Z,2.47
2018-09-28T03:25:50.752Z,2.30
2018-09-28T03:28:20.477Z,2.10
2018-09-28T03:30:50.274Z,2.10
2018-09-28T03:33:20.107Z,2.30
2018-09-28T03:35:50.160Z,2.07
2018-09-28T03:38:20.230Z,1.83
2018-09-28T03:40:50.246Z,2.10
2018-09-28T03:43:20.110Z,2.07
2018-09-28T03:45:50.021Z,2.00
2018-09-28T03:48:19.830Z,2.30
2018-09-28T03:50:50.060Z,2.60
2018-09-28T03:53:20.027Z,2.40
2018-09-28T03:55:49.991Z,2.00
2018-09-28T03:58:19.985Z,2.43
2018-09-28T04:00:51.476Z,2.57
2018-09-28T04:03:21.492Z,2.03
2018-09-28T04:05:51.273Z,2.30
2018-09-28T04:08:21.016Z,2.60
2018-09-28T04:10:50.885Z,2.77
2018-09-28T04:13:20.649Z,1.97
2018-09-28T04:15:50.490Z,2.97
2018-09-28T04:18:20.249Z,3.10
2018-09-28T04:20:49.997Z,2.70
2018-09-28T04:23:19.935Z,2.83
2018-09-28T04:25:49.658Z,2.80
2018-09-28T04:28:19.581Z,3.20
2018-09-28T04:30:49.847Z,2.77
2018-09-28T04:33:19.832Z,2.50
2018-09-28T04:35:49.764Z,3.10
2018-09-28T04:38:19.546Z,3.20
2018-09-28T04:40:49.663Z,2.90
2018-09-28T04:43:20.317Z,3.07
2018-09-28T04:45:50.187Z,3.33
2018-09-28T04:48:19.963Z,2.67
2018-09-28T04:50:49.791Z,3.37
2018-09-28T04:53:21.793Z,2.72
2018-09-28T04:55:51.546Z,2.40
2018-09-28T04:58:21.471Z,2.62
2018-09-28T05:00:51.280Z,2.80
2018-09-28T05:03:20.965Z,2.67
2018-09-28T05:05:50.682Z,2.80
2018-09-28T05:08:20.445Z,2.12
2018-09-28T05:10:50.226Z,2.73
2018-09-28T05:13:19.910Z,2.73
2018-09-28T05:15:50.176Z,2.53
2018-09-28T05:18:19.857Z,2.40
2018-09-28T05:20:49.668Z,3.10
2018-09-28T05:23:19.286Z,2.73
2018-09-28T05:25:48.882Z,2.63
2018-09-28T05:28:18.726Z,2.37
2018-09-28T05:30:53.970Z,2.47
2018-09-28T05:33:18.145Z,2.70
2018-09-28T05:35:47.815Z,2.83
2018-09-28T05:38:17.513Z,2.70
2018-09-28T05:40:47.100Z,2.20
2018-09-28T05:43:18.089Z,2.30
2018-09-28T05:45:47.859Z,2.40
2018-09-28T05:48:17.516Z,3.00
2018-09-28T05:50:47.185Z,2.30
2018-09-28T05:53:16.964Z,2.30
2018-09-28T05:55:46.643Z,2.47
2018-09-28T05:58:21.622Z,2.43
2018-09-28T06:00:56.169Z,2.17
2018-09-28T06:03:26.023Z,2.50
2018-09-28T06:05:58.837Z,2.73
2018-09-28T06:08:29.879Z,2.30
2018-09-28T06:10:59.573Z,2.77
2018-09-28T06:13:29.222Z,2.80
2018-09-28T06:15:58.935Z,2.10
2018-09-28T06:18:28.680Z,2.77
2018-09-28T06:20:58.410Z,2.63
2018-09-28T06:23:27.978Z,2.10
2018-09-28T06:25:57.680Z,2.63
2018-09-28T06:28:27.317Z,2.30
2018-09-28T06:30:56.985Z,2.23
2018-09-28T06:33:26.784Z,2.15
2018-09-28T06:35:56.654Z,2.50
2018-09-28T06:38:26.290Z,2.12
2018-09-28T06:40:56.064Z,1.90
2018-09-28T06:43:25.716Z,2.43
2018-09-28T06:45:55.537Z,2.80
2018-09-28T06:48:25.290Z,2.93
2018-09-28T06:50:54.937Z,2.10
2018-09-28T06:53:24.763Z,2.30
2018-09-28T06:55:54.395Z,2.90
2018-09-28T06:58:24.090Z,2.60
2018-09-28T07:00:53.797Z,2.43
2018-09-28T07:03:23.557Z,2.50
2018-09-28T07:05:53.254Z,2.07
2018-09-28T07:08:22.914Z,2.03
2018-09-28T07:10:52.558Z,2.40
2018-09-28T07:13:22.217Z,1.87
2018-09-28T07:15:51.981Z,2.00
2018-09-28T07:18:21.734Z,1.98
2018-09-28T07:20:56.956Z,1.80
2018-09-28T07:23:26.662Z,1.73
2018-09-28T07:25:56.697Z,1.97
2018-09-28T07:28:26.406Z,2.00
2018-09-28T07:30:56.167Z,2.20
2018-09-28T07:36:23.808Z,2.43
2018-09-28T07:38:53.300Z,1.77
2018-09-28T07:41:22.894Z,2.45
2018-09-28T07:43:52.528Z,2.60
2018-09-28T07:46:22.242Z,2.73
2018-09-28T07:48:57.267Z,2.80
2018-09-28T07:51:26.989Z,2.63
2018-09-28T07:53:58.661Z,2.27
2018-09-28T07:56:28.431Z,2.10
2018-09-28T07:58:58.270Z,2.13
2018-09-28T08:01:28.049Z,2.50
2018-09-28T08:03:57.925Z,1.67
2018-09-28T08:06:27.614Z,1.80
2018-09-28T08:08:57.271Z,2.10
2018-09-28T08:11:27.198Z,1.80
2018-09-28T08:13:56.980Z,2.03
2018-09-28T08:16:26.719Z,1.93
2018-09-28T08:18:56.381Z,2.72
2018-09-28T08:21:26.225Z,2.67
2018-09-28T08:23:55.853Z,2.20
2018-09-28T08:26:25.744Z,2.30
2018-09-28T08:28:55.393Z,2.20
2018-09-28T08:31:25.165Z,2.53
2018-09-28T08:33:54.853Z,2.10
2018-09-28T08:36:24.563Z,2.00
2018-09-28T08:38:54.167Z,2.27
2018-09-28T08:41:23.973Z,2.60
2018-09-28T08:43:53.671Z,2.00
2018-09-28T08:46:23.424Z,1.90
2018-09-28T08:48:53.027Z,2.83
2018-09-28T08:51:22.943Z,1.98
2018-09-28T08:53:53.279Z,2.57
2018-09-28T08:56:23.030Z,2.87
2018-09-28T08:58:52.690Z,3.00
2018-09-28T09:01:22.425Z,2.53
2018-09-28T09:03:52.256Z,2.10
2018-09-28T09:06:21.850Z,2.15
2018-09-28T09:08:51.511Z,2.47
2018-09-28T09:11:21.132Z,2.20
2018-09-28T09:13:50.810Z,1.97
2018-09-28T09:16:20.412Z,2.07
2018-09-28T09:18:50.065Z,1.63
2018-09-28T09:21:19.774Z,1.47
2018-09-28T09:23:49.462Z,1.80
2018-09-28T09:26:19.076Z,1.73
2018-09-28T09:28:48.685Z,2.83
2018-09-28T09:31:18.374Z,1.90
2018-09-28T09:33:48.058Z,2.43
2018-09-28T09:36:19.021Z,1.90
2018-09-28T09:38:49.102Z,1.80
2018-09-28T09:41:18.661Z,1.80
2018-09-28T09:43:48.308Z,1.63
2018-09-28T09:46:18.028Z,1.65
2018-09-28T09:48:47.973Z,1.50
2018-09-28T09:51:17.596Z,2.20
2018-09-28T09:53:47.310Z,2.00
2018-09-28T09:56:16.963Z,1.65
2018-09-28T09:58:48.043Z,1.77
2018-09-28T10:01:22.736Z,2.03
2018-09-28T10:03:52.425Z,1.70
2018-09-28T10:06:23.240Z,1.60
2018-09-28T10:08:53.032Z,1.60
2018-09-28T10:11:22.697Z,1.47
2018-09-28T10:13:52.571Z,1.60
2018-09-28T10:16:22.182Z,1.20
2018-09-28T10:18:51.730Z,1.90
2018-09-28T10:21:21.322Z,1.40
2018-09-28T10:23:50.932Z,1.30
2018-09-28T10:26:20.698Z,1.50
2018-09-28T10:28:50.643Z,1.30
2018-09-28T10:31:20.354Z,1.47
2018-09-28T10:33:50.146Z,1.50
2018-09-28T10:36:19.893Z,1.40
2018-09-28T10:38:49.534Z,1.57
2018-09-28T10:41:19.250Z,1.30
2018-09-28T10:43:48.649Z,1.00
2018-09-28T10:46:18.265Z,1.35
2018-09-28T10:48:47.889Z,1.13
2018-09-28T10:51:17.546Z,1.50
2018-09-28T10:53:47.131Z,1.57
2018-09-28T10:56:16.817Z,2.30
2018-09-28T10:58:46.719Z,2.00
2018-09-28T11:01:16.366Z,2.23
2018-09-28T11:03:46.126Z,2.03
2018-09-28T11:06:15.730Z,1.80
2018-09-28T11:08:45.402Z,1.40
2018-09-28T11:11:15.014Z,1.87
2018-09-28T11:13:44.668Z,1.77
2018-09-28T11:16:14.274Z,1.77
2018-09-28T11:18:43.942Z,1.50
2018-09-28T11:21:13.603Z,1.40
2018-09-28T11:23:43.208Z,1.40
2018-09-28T11:26:12.843Z,1.20
2018-09-28T11:28:42.407Z,1.57
2018-09-28T11:31:11.997Z,1.65
2018-09-28T11:33:41.758Z,1.70
2018-09-28T11:36:11.370Z,1.40
2018-09-28T11:38:40.949Z,1.80
2018-09-28T11:41:10.634Z,1.73
2018-09-28T11:43:40.246Z,1.30
2018-09-28T11:46:10.038Z,1.30
2018-09-28T11:48:40.554Z,1.80
2018-09-28T11:51:10.316Z,1.50
2018-09-28T11:53:40.148Z,1.57
2018-09-28T11:56:09.745Z,1.63
2018-09-28T11:58:39.395Z,1.73
2018-09-28T12:01:09.347Z,1.80
2018-09-28T12:03:38.948Z,1.70
2018-09-28T12:06:08.540Z,1.70
2018-09-28T12:08:38.411Z,1.57
2018-09-28T12:11:08.263Z,2.00
2018-09-28T12:13:38.562Z,1.50
2018-09-28T12:16:09.546Z,1.80
2018-09-28T12:18:39.274Z,1.40
2018-09-28T12:21:08.905Z,1.50
2018-09-28T12:23:38.543Z,1.70
2018-09-28T12:26:08.107Z,1.52
2018-09-28T12:28:37.744Z,2.63
2018-09-28T12:31:07.505Z,1.57
2018-09-28T12:33:37.203Z,1.37
2018-09-28T12:36:07.595Z,1.70
2018-09-28T12:38:37.174Z,1.57
2018-09-28T12:41:07.705Z,1.40
2018-09-28T12:43:37.461Z,1.70
2018-09-28T12:46:07.305Z,1.50
2018-09-28T12:48:37.035Z,1.90
2018-09-28T12:51:06.770Z,1.40
2018-09-28T12:53:36.485Z,1.47
2018-09-28T12:56:06.821Z,1.97
2018-09-28T12:58:36.482Z,2.07
2018-09-28T13:01:06.937Z,1.57
2018-09-28T13:03:36.395Z,1.67
2018-09-28T13:06:07.104Z,1.42
2018-09-28T13:08:36.877Z,1.67
2018-09-28T13:11:06.544Z,1.40
2018-09-28T13:13:36.157Z,1.77
2018-09-28T13:16:06.943Z,2.17
2018-09-28T13:18:36.662Z,2.30
2018-09-28T13:21:06.750Z,3.60
2018-09-28T13:23:36.334Z,4.00
2018-09-28T13:26:06.688Z,2.23
2018-09-28T13:28:36.306Z,2.00
2018-09-28T13:31:07.108Z,2.10
2018-09-28T13:33:36.721Z,1.57
2018-09-28T13:36:06.556Z,2.00
2018-09-28T13:38:36.519Z,2.27
2018-09-28T13:41:06.697Z,1.70
2018-09-28T13:43:36.283Z,2.00
2018-09-28T13:46:07.194Z,2.30
2018-09-28T13:48:36.831Z,1.83
2018-09-28T13:51:07.082Z,1.80
2018-09-28T13:53:36.727Z,1.90
2018-09-28T13:56:06.376Z,1.97
2018-09-28T13:58:36.045Z,1.90
2018-09-28T14:01:06.417Z,1.67
2018-09-28T14:03:36.073Z,2.00
2018-09-28T14:06:06.522Z,1.87
2018-09-28T14:08:36.310Z,1.83
2018-09-28T14:11:06.511Z,1.57
2018-09-28T14:13:36.232Z,1.73
2018-09-28T14:16:06.687Z,1.60
2018-09-28T14:18:36.386Z,1.53
2018-09-28T14:21:06.335Z,1.43
2018-09-28T14:23:35.914Z,2.00
2018-09-28T14:26:06.480Z,1.42
2018-09-28T14:28:36.207Z,1.60
2018-09-28T14:31:06.531Z,1.40
2018-09-28T14:33:36.234Z,1.60
2018-09-28T14:36:06.633Z,1.10
2018-09-28T14:38:36.285Z,1.60
2018-09-28T14:41:06.687Z,1.50
2018-09-28T14:43:37.302Z,1.13
2018-09-28T14:46:07.256Z,1.40
2018-09-28T14:48:36.968Z,1.67
2018-09-28T14:51:06.670Z,1.70
2018-09-28T14:53:36.269Z,1.40
2018-09-28T14:56:06.508Z,1.50
2018-09-28T14:58:36.154Z,1.40
2018-09-28T15:01:06.769Z,1.52
2018-09-28T15:03:36.280Z,1.30
2018-09-28T15:06:06.735Z,1.60
2018-09-28T15:08:36.500Z,1.77
2018-09-28T15:11:06.362Z,1.70
2018-09-28T15:13:36.074Z,2.10
2018-09-28T15:16:06.421Z,1.50
2018-09-28T15:18:35.992Z,1.80
2018-09-28T15:21:06.523Z,2.40
2018-09-28T15:23:36.153Z,1.87
2018-09-28T15:26:06.901Z,2.00
2018-09-28T15:28:36.549Z,1.53
2018-09-28T15:31:07.495Z,2.25
2018-09-28T15:33:37.107Z,1.70
2018-09-28T15:36:07.334Z,2.13
2018-09-28T15:38:37.177Z,2.30
2018-09-28T15:41:06.979Z,2.03
2018-09-28T15:46:36.541Z,1.63
2018-09-28T15:49:06.552Z,1.92
2018-09-28T15:51:36.153Z,1.90
2018-09-28T15:54:06.875Z,1.50
2018-09-28T15:56:36.661Z,1.70
2018-09-28T15:59:06.469Z,1.70
2018-09-28T16:01:36.105Z,1.60
2018-09-28T16:04:06.373Z,1.77
2018-09-28T16:06:36.044Z,1.60
2018-09-28T16:09:09.674Z,1.40
2018-09-28T16:11:39.456Z,1.47
2018-09-28T16:14:09.101Z,1.80
2018-09-28T16:16:38.677Z,1.30
2018-09-28T16:19:08.495Z,1.47
2018-09-28T16:21:38.203Z,1.67
2018-09-28T16:24:07.854Z,1.50
2018-09-28T16:26:37.808Z,1.40
2018-09-28T16:29:09.003Z,1.50
2018-09-28T16:31:38.601Z,1.70
2018-09-28T16:34:08.328Z,1.50
2018-09-28T16:36:37.995Z,1.50
2018-09-28T16:39:10.081Z,1.40
2018-09-28T16:41:40.118Z,1.70
2018-09-28T16:44:10.004Z,2.67
2018-09-28T16:49:37.333Z,1.60
2018-09-28T16:52:07.105Z,1.60
2018-09-28T16:54:36.967Z,2.03
2018-09-28T16:57:06.796Z,1.67
2018-09-28T16:59:36.702Z,1.90
2018-09-28T17:02:06.853Z,1.95
2018-09-28T17:04:36.790Z,1.30
2018-09-28T17:07:06.960Z,1.75
2018-09-28T17:09:36.970Z,1.83
2018-09-28T17:12:06.549Z,1.70
2018-09-28T17:14:36.053Z,1.80
2018-09-28T17:17:06.649Z,1.50
2018-09-28T17:19:36.223Z,1.55
2018-09-28T17:22:06.394Z,1.55
2018-09-28T17:24:35.959Z,1.40
2018-09-28T17:27:06.550Z,1.87
2018-09-28T17:29:36.241Z,2.17
2018-09-28T17:32:06.624Z,1.98
2018-09-28T17:34:36.245Z,1.70
2018-09-28T17:37:06.241Z,1.80
2018-09-28T17:39:35.824Z,1.53
2018-09-28T17:42:06.757Z,2.87
2018-09-28T17:44:36.522Z,2.20
2018-09-28T17:47:06.724Z,1.85
2018-09-28T17:49:36.381Z,1.87
2018-09-28T17:52:06.714Z,2.40
2018-09-28T17:54:36.366Z,2.47
2018-09-28T17:57:06.990Z,2.45
2018-09-28T18:02:22.384Z,1.90
2018-09-28T18:04:52.484Z,2.30
2018-09-28T18:07:22.413Z,2.47
2018-09-28T18:09:52.357Z,2.53
2018-09-28T18:12:22.346Z,3.40
2018-09-28T18:14:52.317Z,22.17
2018-09-28T18:17:22.169Z,20.60
2018-09-28T18:19:52.112Z,9.10
2018-09-28T18:22:22.118Z,8.23
2018-09-28T18:24:52.022Z,8.37
2018-09-28T18:27:21.996Z,7.23
2018-09-28T18:29:51.755Z,6.40
2018-09-28T18:32:21.650Z,6.55
2018-09-28T18:34:51.582Z,6.80
2018-09-28T18:37:21.453Z,7.85
2018-09-28T18:39:51.310Z,8.50
2018-09-28T18:42:21.364Z,8.65
2018-09-28T18:44:51.230Z,8.30
2018-09-28T18:47:21.186Z,6.70
2018-09-28T18:49:51.178Z,4.47
2018-09-28T18:52:21.293Z,5.40
2018-09-28T18:54:51.194Z,4.30
2018-09-28T18:57:21.106Z,3.95
2018-09-28T18:59:50.942Z,18.73
2018-09-28T19:02:20.854Z,31.80
2018-09-28T19:04:50.759Z,35.60
2018-09-28T19:07:20.652Z,31.53
2018-09-28T19:09:50.576Z,29.67
2018-09-28T19:12:20.534Z,26.30
2018-09-28T19:14:50.605Z,14.87
2018-09-28T19:17:20.529Z,13.28
2018-09-28T19:19:50.363Z,9.30
2018-09-28T19:22:20.250Z,10.13
2018-09-28T19:24:49.961Z,9.50
2018-09-28T19:27:19.881Z,7.70
2018-09-28T19:29:49.779Z,9.35
2018-09-28T19:32:20.150Z,7.87
2018-09-28T19:34:50.037Z,8.57
2018-09-28T19:37:19.862Z,7.83
2018-09-28T19:39:49.654Z,7.57
2018-09-28T19:42:19.468Z,8.10
2018-09-28T19:44:50.082Z,7.70
2018-09-28T19:47:19.897Z,7.60
2018-09-28T19:49:49.706Z,7.40
2018-09-28T19:52:19.545Z,6.40
2018-09-28T19:54:49.339Z,5.63
2018-09-28T19:57:19.157Z,5.20
2018-09-28T19:59:48.965Z,6.20
2018-09-28T20:02:18.669Z,5.80
2018-09-28T20:04:48.575Z,5.50
2018-09-28T20:07:18.417Z,5.62
2018-09-28T20:09:48.611Z,5.90
2018-09-28T20:12:18.346Z,6.20
2018-09-28T20:14:48.136Z,6.33
2018-09-28T20:17:17.850Z,6.45
2018-09-28T20:19:47.777Z,5.42
2018-09-28T20:22:17.581Z,6.60
2018-09-28T20:24:47.425Z,6.23
2018-09-28T20:27:19.169Z,6.60
2018-09-28T20:29:51.766Z,5.63
2018-09-28T20:32:22.768Z,5.37
2018-09-28T20:34:52.580Z,5.43
2018-09-28T20:37:22.492Z,5.10
2018-09-28T20:39:52.418Z,4.53
2018-09-28T20:42:22.221Z,5.40
2018-09-28T20:44:52.032Z,5.10
2018-09-28T20:47:21.846Z,5.07
2018-09-28T20:49:51.546Z,5.00
2018-09-28T20:52:21.466Z,5.50
2018-09-28T20:54:51.298Z,4.60
2018-09-28T20:59:44.542Z,4.67
2018-09-28T21:02:14.275Z,4.30
2018-09-28T21:04:43.980Z,4.57
2018-09-28T21:07:13.734Z,4.42
2018-09-28T21:09:43.584Z,4.53
2018-09-28T21:12:13.502Z,4.73
2018-09-28T21:14:43.225Z,4.33
2018-09-28T21:17:13.049Z,4.55
2018-09-28T21:19:42.775Z,5.33
2018-09-28T21:22:12.506Z,5.40
2018-09-28T21:24:42.334Z,5.60
2018-09-28T21:27:12.077Z,5.13
2018-09-28T21:29:41.878Z,4.87
2018-09-28T21:32:11.387Z,4.97
2018-09-28T21:34:40.900Z,5.90
2018-09-28T21:38:13.676Z,5.40
2018-09-28T21:40:43.192Z,5.40
2018-09-28T21:43:12.732Z,6.12
2018-09-28T21:45:42.280Z,5.33
2018-09-28T21:48:11.806Z,6.37
2018-09-28T21:50:41.331Z,5.05
2018-09-28T21:53:10.865Z,6.05
2018-09-28T21:55:40.557Z,4.80
2018-09-28T21:58:10.065Z,5.47
2018-09-28T22:00:40.116Z,5.63
2018-09-28T22:03:09.942Z,5.90
2018-09-28T22:05:39.467Z,5.63
2018-09-28T22:08:09.004Z,5.73
2018-09-28T22:10:38.541Z,4.97
2018-09-28T22:13:08.113Z,5.13
2018-09-28T22:15:37.687Z,5.40
2018-09-28T22:18:07.370Z,5.10
2018-09-28T22:20:36.872Z,4.97
2018-09-28T22:23:06.833Z,4.75
2018-09-28T22:25:36.494Z,5.50
2018-09-28T22:28:06.156Z,4.47
2018-09-28T22:30:35.673Z,6.12
2018-09-28T22:33:06.297Z,5.68
2018-09-28T22:35:35.875Z,4.70
2018-09-28T22:38:06.432Z,4.53
2018-09-28T22:40:36.045Z,4.73
2018-09-28T22:43:06.529Z,5.45
2018-09-28T22:45:36.615Z,4.40
2018-09-28T22:48:06.552Z,4.47
2018-09-28T22:50:36.065Z,4.30
2018-09-28T22:53:06.278Z,5.05
2018-09-28T22:55:35.786Z,4.67
2018-09-28T22:58:06.286Z,4.35
2018-09-28T23:00:35.856Z,4.73
2018-09-28T23:03:06.540Z,4.85
2018-09-28T23:05:36.163Z,4.53
2018-09-28T23:08:14.539Z,5.20
2018-09-28T23:10:51.046Z,4.90
2018-09-28T23:13:30.984Z,5.40
2018-09-28T23:16:08.331Z,4.67
2018-09-28T23:18:47.626Z,3.60
2018-09-28T23:21:27.259Z,4.97
2018-09-28T23:24:06.201Z,4.70
2018-09-28T23:26:44.845Z,4.83
2018-09-28T23:29:19.243Z,5.13
2018-09-28T23:31:58.012Z,4.83
2018-09-28T23:34:35.865Z,5.30
2018-09-28T23:37:12.140Z,5.33
2018-09-28T23:39:50.679Z,5.70
2018-09-28T23:42:28.677Z,5.90
2018-09-28T23:45:06.108Z,5.50
2018-09-28T23:47:39.272Z,5.23
2018-09-28T23:50:12.788Z,5.30
2018-09-28T23:52:50.656Z,5.60
2018-09-28T23:55:28.489Z,4.50
2018-09-28T23:58:06.581Z,4.90
